RYR7878 EPKK-EPMO
Flight info
| Callsign | RYR7878 |
|---|---|
| Flight time | 0h 46m |
| Altitude | 25000 |
| Route | POBOK5J POBOK M985 KOTEK M866 LOGDA LOGDA4Y |
| Aircraft | B738/M-SDE2E3FGHIRWXY/LB1 |
Departure
| Time | 2026-04-22 14:03 |
|---|---|
| Airport | Kraków John Paul II International Airport (EPKK) |
Arrival
| Time | 2026-04-22 14:50 |
|---|---|
| Airport | Warsaw Modlin Airport (EPMO) |
| Time | Latitude | Longitude | Altitude | Speed | Heading |
|---|---|---|---|---|---|
| 2026-04-22 13:59 | 50.07587 | 19.80160 | 789 ft | 0 kts | 347° |
| 2026-04-22 14:00 | 50.07588 | 19.80160 | 789 ft | 0 kts | 347° |
| 2026-04-22 14:00 | 50.07594 | 19.80158 | 789 ft | 6 kts | 347° |
| 2026-04-22 14:01 | 50.07624 | 19.80159 | 789 ft | 0 kts | 26° |
| 2026-04-22 14:01 | 50.07624 | 19.80160 | 789 ft | 0 kts | 30° |
| 2026-04-22 14:01 | 50.07648 | 19.80225 | 789 ft | 13 kts | 73° |
| 2026-04-22 14:02 | 50.07694 | 19.80379 | 789 ft | 18 kts | 19° |
| 2026-04-22 14:02 | 50.07832 | 19.80341 | 789 ft | 23 kts | 347° |
| 2026-04-22 14:02 | 50.07992 | 19.80266 | 788 ft | 25 kts | 317° |
| 2026-04-22 14:02 | 50.07987 | 19.80021 | 788 ft | 24 kts | 258° |
| 2026-04-22 14:03 | 50.07936 | 19.79669 | 789 ft | 65 kts | 258° |
| 2026-04-22 14:03 | 50.07779 | 19.78501 | 796 ft | 151 kts | 264° |
| 2026-04-22 14:03 | 50.07511 | 19.76620 | 1255 ft | 197 kts | 259° |
| 2026-04-22 14:03 | 50.07177 | 19.74488 | 1876 ft | 206 kts | 261° |
| 2026-04-22 14:04 | 50.06870 | 19.72397 | 2776 ft | 193 kts | 262° |
| 2026-04-22 14:04 | 50.06567 | 19.70264 | 3185 ft | 213 kts | 260° |
| 2026-04-22 14:04 | 50.06406 | 19.67896 | 3472 ft | 226 kts | 281° |
| 2026-04-22 14:04 | 50.06949 | 19.65631 | 4079 ft | 222 kts | 303° |
| 2026-04-22 14:05 | 50.07859 | 19.63655 | 4550 ft | 231 kts | 313° |
| 2026-04-22 14:05 | 50.09252 | 19.62379 | 4957 ft | 244 kts | 345° |
| 2026-04-22 14:05 | 50.12713 | 19.61431 | 6388 ft | 257 kts | 358° |
| 2026-04-22 14:06 | 50.14439 | 19.62047 | 7371 ft | 257 kts | 22° |
| 2026-04-22 14:06 | 50.15912 | 19.63596 | 7815 ft | 262 kts | 38° |
| 2026-04-22 14:06 | 50.17296 | 19.65514 | 7964 ft | 267 kts | 39° |
| 2026-04-22 14:06 | 50.18688 | 19.67440 | 7967 ft | 268 kts | 39° |
| 2026-04-22 14:07 | 50.20086 | 19.69372 | 7969 ft | 268 kts | 38° |
| 2026-04-22 14:07 | 50.21487 | 19.71291 | 8004 ft | 266 kts | 39° |
| 2026-04-22 14:07 | 50.22874 | 19.73185 | 8210 ft | 266 kts | 38° |
| 2026-04-22 14:07 | 50.24273 | 19.75088 | 8411 ft | 268 kts | 38° |
| 2026-04-22 14:08 | 50.25684 | 19.77007 | 8620 ft | 270 kts | 38° |
| 2026-04-22 14:08 | 50.27097 | 19.78932 | 8888 ft | 269 kts | 39° |
| 2026-04-22 14:08 | 50.28507 | 19.80858 | 9143 ft | 269 kts | 38° |
| 2026-04-22 14:08 | 50.29915 | 19.82782 | 9431 ft | 269 kts | 38° |
| 2026-04-22 14:09 | 50.31324 | 19.84706 | 9701 ft | 270 kts | 39° |
| 2026-04-22 14:09 | 50.32746 | 19.86650 | 9979 ft | 272 kts | 39° |
| 2026-04-22 14:09 | 50.34180 | 19.88613 | 10233 ft | 274 kts | 39° |
| 2026-04-22 14:09 | 50.35618 | 19.90584 | 10485 ft | 275 kts | 39° |
| 2026-04-22 14:10 | 50.37061 | 19.92564 | 10725 ft | 276 kts | 39° |
| 2026-04-22 14:10 | 50.38488 | 19.94523 | 10966 ft | 276 kts | 39° |
| 2026-04-22 14:10 | 50.39931 | 19.96509 | 11226 ft | 276 kts | 39° |
| 2026-04-22 14:10 | 50.41373 | 19.98493 | 11483 ft | 276 kts | 39° |
| 2026-04-22 14:11 | 50.42818 | 20.00481 | 11727 ft | 276 kts | 39° |
| 2026-04-22 14:11 | 50.44265 | 20.02474 | 11985 ft | 276 kts | 40° |
| 2026-04-22 14:11 | 50.45715 | 20.04473 | 12259 ft | 277 kts | 39° |
| 2026-04-22 14:11 | 50.47165 | 20.06474 | 12516 ft | 278 kts | 39° |
| 2026-04-22 14:12 | 50.48619 | 20.08482 | 12767 ft | 279 kts | 40° |
| 2026-04-22 14:12 | 50.50078 | 20.10500 | 13045 ft | 280 kts | 40° |
| 2026-04-22 14:12 | 50.51543 | 20.12526 | 13318 ft | 281 kts | 40° |
| 2026-04-22 14:12 | 50.52993 | 20.14532 | 13588 ft | 282 kts | 40° |
| 2026-04-22 14:13 | 50.54464 | 20.16571 | 13866 ft | 283 kts | 40° |
| 2026-04-22 14:13 | 50.55943 | 20.18622 | 14117 ft | 284 kts | 40° |
| 2026-04-22 14:13 | 50.57444 | 20.20644 | 14357 ft | 284 kts | 35° |
| 2026-04-22 14:13 | 50.59137 | 20.22240 | 14598 ft | 284 kts | 25° |
| 2026-04-22 14:14 | 50.60989 | 20.23318 | 14847 ft | 284 kts | 18° |
| 2026-04-22 14:14 | 50.62878 | 20.24239 | 15098 ft | 285 kts | 18° |
| 2026-04-22 14:14 | 50.64773 | 20.25176 | 15347 ft | 285 kts | 19° |
| 2026-04-22 14:14 | 50.66625 | 20.26311 | 15608 ft | 286 kts | 23° |
| 2026-04-22 14:15 | 50.68456 | 20.27564 | 15878 ft | 287 kts | 24° |
| 2026-04-22 14:15 | 50.69664 | 20.28409 | 16064 ft | 287 kts | 24° |
| 2026-04-22 14:15 | 50.71491 | 20.29689 | 16348 ft | 288 kts | 24° |
| 2026-04-22 14:15 | 50.73325 | 20.30971 | 16636 ft | 288 kts | 24° |
| 2026-04-22 14:16 | 50.75787 | 20.32685 | 17021 ft | 290 kts | 25° |
| 2026-04-22 14:16 | 50.77615 | 20.33953 | 17312 ft | 291 kts | 25° |
| 2026-04-22 14:16 | 50.78869 | 20.34823 | 17487 ft | 294 kts | 25° |
| 2026-04-22 14:16 | 50.80804 | 20.36164 | 17624 ft | 314 kts | 25° |
| 2026-04-22 14:17 | 50.82867 | 20.37594 | 17800 ft | 334 kts | 25° |
| 2026-04-22 14:17 | 50.85061 | 20.39115 | 17957 ft | 354 kts | 25° |
| 2026-04-22 14:17 | 50.87370 | 20.40716 | 18102 ft | 372 kts | 25° |
| 2026-04-22 14:17 | 50.89777 | 20.42383 | 18499 ft | 381 kts | 25° |
| 2026-04-22 14:18 | 50.92216 | 20.44074 | 19070 ft | 383 kts | 25° |
| 2026-04-22 14:18 | 50.94659 | 20.45769 | 19706 ft | 384 kts | 25° |
| 2026-04-22 14:18 | 50.97117 | 20.47477 | 19890 ft | 386 kts | 25° |
| 2026-04-22 14:18 | 50.99550 | 20.49169 | 19824 ft | 379 kts | 25° |
| 2026-04-22 14:19 | 51.01949 | 20.50839 | 19777 ft | 374 kts | 25° |
| 2026-04-22 14:19 | 51.04333 | 20.52501 | 19782 ft | 375 kts | 25° |
| 2026-04-22 14:19 | 51.06726 | 20.54173 | 19779 ft | 376 kts | 25° |
| 2026-04-22 14:19 | 51.09123 | 20.55850 | 19777 ft | 376 kts | 25° |
| 2026-04-22 14:20 | 51.13907 | 20.59201 | 19776 ft | 376 kts | 25° |
| 2026-04-22 14:20 | 51.16302 | 20.60882 | 19774 ft | 376 kts | 25° |
| 2026-04-22 14:20 | 51.18696 | 20.62563 | 19773 ft | 375 kts | 25° |
| 2026-04-22 14:21 | 51.23469 | 20.65921 | 19766 ft | 372 kts | 25° |
| 2026-04-22 14:21 | 51.25796 | 20.67559 | 19758 ft | 366 kts | 25° |
| 2026-04-22 14:22 | 51.29987 | 20.71528 | 19751 ft | 342 kts | 43° |
| 2026-04-22 14:22 | 51.31718 | 20.74112 | 19802 ft | 339 kts | 43° |
| 2026-04-22 14:22 | 51.35183 | 20.79296 | 20323 ft | 343 kts | 43° |
| 2026-04-22 14:23 | 51.36929 | 20.81892 | 20580 ft | 343 kts | 43° |
| 2026-04-22 14:23 | 51.38681 | 20.84490 | 20818 ft | 344 kts | 43° |
| 2026-04-22 14:23 | 51.40444 | 20.87100 | 20840 ft | 350 kts | 43° |
| 2026-04-22 14:23 | 51.42260 | 20.89786 | 20124 ft | 354 kts | 43° |
| 2026-04-22 14:24 | 51.44051 | 20.92436 | 19503 ft | 347 kts | 43° |
| 2026-04-22 14:24 | 51.45803 | 20.95031 | 18896 ft | 341 kts | 42° |
| 2026-04-22 14:24 | 51.47533 | 20.97595 | 18288 ft | 336 kts | 42° |
| 2026-04-22 14:24 | 51.49236 | 21.00120 | 17600 ft | 332 kts | 42° |
| 2026-04-22 14:25 | 51.50923 | 21.02625 | 17030 ft | 327 kts | 41° |
| 2026-04-22 14:25 | 51.52554 | 21.05051 | 16785 ft | 314 kts | 41° |
| 2026-04-22 14:25 | 51.54183 | 21.07473 | 16553 ft | 325 kts | 41° |
| 2026-04-22 14:25 | 51.55858 | 21.09967 | 16292 ft | 330 kts | 41° |
| 2026-04-22 14:26 | 51.57533 | 21.12464 | 16034 ft | 327 kts | 41° |
| 2026-04-22 14:26 | 51.59191 | 21.14940 | 15769 ft | 324 kts | 41° |
| 2026-04-22 14:26 | 51.60837 | 21.17399 | 15514 ft | 322 kts | 41° |
| 2026-04-22 14:26 | 51.62475 | 21.19850 | 15264 ft | 321 kts | 41° |
| 2026-04-22 14:27 | 51.64103 | 21.22291 | 15013 ft | 320 kts | 41° |
| 2026-04-22 14:27 | 51.65729 | 21.24732 | 14768 ft | 319 kts | 41° |
| 2026-04-22 14:27 | 51.67355 | 21.27175 | 14532 ft | 320 kts | 41° |
| 2026-04-22 14:27 | 51.68981 | 21.29621 | 14290 ft | 320 kts | 41° |
| 2026-04-22 14:28 | 51.70606 | 21.32069 | 14047 ft | 320 kts | 41° |
| 2026-04-22 14:28 | 51.72236 | 21.34525 | 13791 ft | 321 kts | 41° |
| 2026-04-22 14:28 | 51.73863 | 21.36982 | 13520 ft | 321 kts | 41° |
| 2026-04-22 14:28 | 51.75471 | 21.39410 | 13254 ft | 321 kts | 41° |
| 2026-04-22 14:29 | 51.77100 | 21.41873 | 12989 ft | 320 kts | 41° |
| 2026-04-22 14:29 | 51.78725 | 21.44333 | 12716 ft | 320 kts | 41° |
| 2026-04-22 14:29 | 51.80343 | 21.46786 | 12476 ft | 318 kts | 41° |
| 2026-04-22 14:29 | 51.81952 | 21.49227 | 12406 ft | 317 kts | 41° |
| 2026-04-22 14:30 | 51.83557 | 21.51664 | 12387 ft | 316 kts | 41° |
| 2026-04-22 14:30 | 51.85156 | 21.54093 | 12385 ft | 316 kts | 41° |
| 2026-04-22 14:30 | 51.86758 | 21.56530 | 12382 ft | 316 kts | 41° |
| 2026-04-22 14:30 | 51.88373 | 21.58989 | 11957 ft | 322 kts | 41° |
| 2026-04-22 14:31 | 51.90056 | 21.61401 | 11450 ft | 323 kts | 32° |
| 2026-04-22 14:31 | 51.92098 | 21.62799 | 10941 ft | 319 kts | 11° |
| 2026-04-22 14:31 | 51.94295 | 21.62990 | 10430 ft | 317 kts | 353° |
| 2026-04-22 14:31 | 51.96464 | 21.62435 | 9962 ft | 315 kts | 350° |
| 2026-04-22 14:32 | 51.98612 | 21.61788 | 9417 ft | 310 kts | 349° |
| 2026-04-22 14:32 | 52.00699 | 21.61150 | 8885 ft | 301 kts | 349° |
| 2026-04-22 14:32 | 52.02730 | 21.60539 | 8353 ft | 293 kts | 349° |
| 2026-04-22 14:32 | 52.04707 | 21.59952 | 7835 ft | 286 kts | 349° |
| 2026-04-22 14:33 | 52.06642 | 21.59385 | 7326 ft | 280 kts | 349° |
| 2026-04-22 14:33 | 52.08537 | 21.58833 | 6880 ft | 272 kts | 349° |
| 2026-04-22 14:33 | 52.10346 | 21.58309 | 6810 ft | 258 kts | 349° |
| 2026-04-22 14:33 | 52.12105 | 21.57801 | 6790 ft | 255 kts | 349° |
| 2026-04-22 14:34 | 52.13837 | 21.57299 | 6771 ft | 250 kts | 349° |
| 2026-04-22 14:34 | 52.15533 | 21.56808 | 6770 ft | 245 kts | 349° |
| 2026-04-22 14:34 | 52.17206 | 21.56323 | 6766 ft | 243 kts | 349° |
| 2026-04-22 14:34 | 52.18867 | 21.55842 | 6780 ft | 242 kts | 349° |
| 2026-04-22 14:35 | 52.20515 | 21.55294 | 6779 ft | 242 kts | 342° |
| 2026-04-22 14:35 | 52.22082 | 21.54291 | 6779 ft | 242 kts | 336° |
| 2026-04-22 14:35 | 52.23619 | 21.53166 | 6784 ft | 242 kts | 336° |
| 2026-04-22 14:35 | 52.25157 | 21.52039 | 6773 ft | 242 kts | 336° |
| 2026-04-22 14:36 | 52.26699 | 21.50923 | 6781 ft | 242 kts | 336° |
| 2026-04-22 14:36 | 52.28241 | 21.49817 | 6781 ft | 242 kts | 336° |
| 2026-04-22 14:36 | 52.29787 | 21.48718 | 6786 ft | 242 kts | 336° |
| 2026-04-22 14:36 | 52.31313 | 21.47638 | 6783 ft | 242 kts | 336° |
| 2026-04-22 14:37 | 52.32864 | 21.46544 | 6791 ft | 243 kts | 336° |
| 2026-04-22 14:37 | 52.34417 | 21.45447 | 6789 ft | 243 kts | 336° |
| 2026-04-22 14:37 | 52.35974 | 21.44351 | 6784 ft | 243 kts | 336° |
| 2026-04-22 14:37 | 52.37528 | 21.43254 | 6782 ft | 243 kts | 336° |
| 2026-04-22 14:38 | 52.39079 | 21.42157 | 6779 ft | 243 kts | 336° |
| 2026-04-22 14:38 | 52.40631 | 21.41062 | 6707 ft | 245 kts | 336° |
| 2026-04-22 14:38 | 52.42222 | 21.39938 | 6280 ft | 249 kts | 336° |
| 2026-04-22 14:38 | 52.43797 | 21.38822 | 5875 ft | 244 kts | 336° |
| 2026-04-22 14:39 | 52.45341 | 21.37728 | 5489 ft | 240 kts | 336° |
| 2026-04-22 14:39 | 52.46857 | 21.36653 | 5096 ft | 236 kts | 335° |
| 2026-04-22 14:39 | 52.48377 | 21.35575 | 5045 ft | 242 kts | 335° |
| 2026-04-22 14:40 | 52.50712 | 21.31914 | 4993 ft | 239 kts | 291° |
| 2026-04-22 14:40 | 52.50967 | 21.29217 | 4984 ft | 242 kts | 270° |
| 2026-04-22 14:40 | 52.50778 | 21.26448 | 4986 ft | 247 kts | 265° |
| 2026-04-22 14:40 | 52.50514 | 21.23667 | 4993 ft | 246 kts | 265° |
| 2026-04-22 14:41 | 52.50251 | 21.20888 | 4986 ft | 246 kts | 265° |
| 2026-04-22 14:41 | 52.49994 | 21.18114 | 4993 ft | 246 kts | 265° |
| 2026-04-22 14:41 | 52.49740 | 21.15341 | 4977 ft | 245 kts | 265° |
| 2026-04-22 14:41 | 52.49493 | 21.12627 | 4973 ft | 235 kts | 265° |
| 2026-04-22 14:42 | 52.49296 | 21.10046 | 4976 ft | 221 kts | 269° |
| 2026-04-22 14:42 | 52.49135 | 21.07653 | 4960 ft | 201 kts | 268° |
| 2026-04-22 14:42 | 52.48954 | 21.05501 | 4944 ft | 180 kts | 267° |
| 2026-04-22 14:42 | 52.48788 | 21.03672 | 4979 ft | 0 kts | 266° |
| 2026-04-22 14:44 | 52.48673 | 21.01918 | 4970 ft | 164 kts | 266° |
| 2026-04-22 14:44 | 52.48480 | 21.00115 | 4981 ft | 158 kts | 266° |
| 2026-04-22 14:44 | 52.48295 | 20.98316 | 4702 ft | 160 kts | 266° |
| 2026-04-22 14:44 | 52.48114 | 20.96525 | 4491 ft | 154 kts | 266° |
| 2026-04-22 14:45 | 52.47946 | 20.94828 | 4229 ft | 147 kts | 267° |
| 2026-04-22 14:45 | 52.47787 | 20.93186 | 4001 ft | 145 kts | 267° |
| 2026-04-22 14:45 | 52.47632 | 20.91586 | 3788 ft | 139 kts | 268° |
| 2026-04-22 14:45 | 52.47483 | 20.90044 | 3577 ft | 134 kts | 268° |
| 2026-04-22 14:46 | 52.47341 | 20.88554 | 3379 ft | 135 kts | 268° |
| 2026-04-22 14:46 | 52.47196 | 20.87022 | 3171 ft | 137 kts | 268° |
| 2026-04-22 14:46 | 52.47049 | 20.85491 | 2959 ft | 136 kts | 268° |
| 2026-04-22 14:46 | 52.46902 | 20.83936 | 2717 ft | 141 kts | 268° |
| 2026-04-22 14:47 | 52.46749 | 20.82349 | 2524 ft | 142 kts | 268° |
| 2026-04-22 14:47 | 52.46598 | 20.80763 | 2298 ft | 140 kts | 268° |
| 2026-04-22 14:47 | 52.46451 | 20.79224 | 2083 ft | 133 kts | 268° |
| 2026-04-22 14:47 | 52.46308 | 20.77708 | 1898 ft | 138 kts | 268° |
| 2026-04-22 14:48 | 52.46161 | 20.76169 | 1659 ft | 135 kts | 269° |
| 2026-04-22 14:48 | 52.46015 | 20.74630 | 1468 ft | 139 kts | 269° |
| 2026-04-22 14:48 | 52.45866 | 20.73022 | 1254 ft | 145 kts | 268° |
| 2026-04-22 14:48 | 52.45710 | 20.71355 | 1022 ft | 151 kts | 266° |
| 2026-04-22 14:49 | 52.45542 | 20.69644 | 790 ft | 152 kts | 269° |
| 2026-04-22 14:49 | 52.45394 | 20.67932 | 561 ft | 151 kts | 268° |
| 2026-04-22 14:49 | 52.45217 | 20.66277 | 376 ft | 142 kts | 265° |
| 2026-04-22 14:49 | 52.45088 | 20.64803 | 352 ft | 116 kts | 264° |
| 2026-04-22 14:50 | 52.44989 | 20.63718 | 351 ft | 64 kts | 262° |
| 2026-04-22 14:50 | 52.44961 | 20.63504 | 352 ft | 0 kts | 252° |